createdAt,value
2019-02-15T05:00:30.240Z,0
2019-02-15T05:03:58.140Z,0
2019-02-15T05:07:26.040Z,0
2019-02-15T05:10:53.951Z,0
2019-02-15T05:14:21.865Z,0
2019-02-15T05:17:49.750Z,0
2019-02-15T05:21:17.660Z,0
2019-02-15T05:24:45.570Z,0
2019-02-15T05:28:13.450Z,0
2019-02-15T05:31:42.339Z,0
2019-02-15T05:35:10.248Z,0
2019-02-15T05:38:41.213Z,0
2019-02-15T05:42:08.027Z,0
2019-02-15T05:45:36.923Z,0
2019-02-15T05:49:04.816Z,0
2019-02-15T05:52:33.712Z,0
2019-02-15T05:56:01.617Z,0
2019-02-15T05:59:29.532Z,0
2019-02-15T06:02:57.424Z,0
2019-02-15T06:06:25.344Z,0
2019-02-15T06:09:53.248Z,0
2019-02-15T06:13:21.141Z,0
2019-02-15T06:16:49.046Z,0
2019-02-15T06:20:16.964Z,0
2019-02-15T06:23:44.847Z,0
2019-02-15T06:27:12.748Z,0
2019-02-15T06:30:40.648Z,0
2019-02-15T06:34:08.638Z,0
2019-02-15T06:37:36.539Z,5.625
2019-02-15T06:41:04.449Z,5.625
2019-02-15T06:44:32.357Z,5.625
2019-02-15T06:48:00.237Z,11.25
2019-02-15T06:51:28.140Z,16.875
2019-02-15T06:54:56.287Z,16.875
2019-02-15T06:58:24.182Z,16.875
2019-02-15T07:01:52.095Z,22.5
2019-02-15T07:05:19.995Z,28.125
2019-02-15T07:08:47.880Z,28.125
2019-02-15T07:12:15.783Z,33.75
2019-02-15T07:15:43.690Z,33.75
2019-02-15T07:19:11.578Z,33.75
2019-02-15T07:22:39.485Z,39.375
2019-02-15T07:26:07.391Z,39.375
2019-02-15T07:29:35.302Z,39.375
2019-02-15T07:33:03.187Z,50.625
2019-02-15T07:36:32.077Z,50.625
2019-02-15T07:39:59.976Z,50.625
2019-02-15T07:43:27.857Z,56.25
2019-02-15T07:46:55.761Z,61.875
2019-02-15T07:50:23.673Z,61.875
2019-02-15T07:53:51.562Z,67.5
2019-02-15T07:57:19.467Z,67.5
2019-02-15T08:00:47.373Z,67.5
2019-02-15T08:04:15.261Z,73.125
2019-02-15T08:07:43.165Z,78.75
2019-02-15T08:11:11.071Z,84.375
2019-02-15T08:14:38.959Z,84.375
2019-02-15T08:18:06.870Z,78.75
2019-02-15T08:21:34.778Z,84.375
2019-02-15T08:25:03.658Z,90
2019-02-15T08:28:31.568Z,101.25
2019-02-15T08:31:59.480Z,101.25
2019-02-15T08:35:28.387Z,112.5
2019-02-15T08:38:56.279Z,112.5
2019-02-15T08:42:24.184Z,101.25
2019-02-15T08:46:00.496Z,106.875
2019-02-15T08:49:24.959Z,112.5
2019-02-15T08:52:52.840Z,106.875
2019-02-15T08:56:21.742Z,140.625
2019-02-15T08:59:49.707Z,174.375
2019-02-15T09:03:17.609Z,168.75
2019-02-15T09:06:47.544Z,202.5
2019-02-15T09:10:15.440Z,180
2019-02-15T09:13:43.332Z,146.25
2019-02-15T09:17:11.236Z,208.125
2019-02-15T09:20:39.143Z,225
2019-02-15T09:24:07.209Z,191.25
2019-02-15T09:27:35.427Z,196.875
2019-02-15T09:31:03.376Z,202.5
2019-02-15T09:34:33.039Z,196.875
2019-02-15T09:38:00.172Z,208.125
2019-02-15T09:41:28.112Z,202.5
2019-02-15T09:44:56.019Z,208.125
2019-02-15T09:48:24.191Z,208.125
2019-02-15T09:51:52.075Z,213.75
2019-02-15T09:55:21.938Z,219.375
2019-02-15T09:58:50.865Z,225
2019-02-15T10:02:18.762Z,225
2019-02-15T10:05:46.674Z,230.625
2019-02-15T10:09:14.576Z,236.25
2019-02-15T10:12:43.487Z,247.5
2019-02-15T10:16:11.388Z,247.5
2019-02-15T10:19:39.289Z,253.125
2019-02-15T10:23:07.210Z,258.75
2019-02-15T10:26:35.288Z,270
2019-02-15T10:30:04.163Z,275.625
2019-02-15T10:33:32.066Z,281.25
2019-02-15T10:36:59.965Z,298.125
2019-02-15T10:40:27.875Z,320.625
2019-02-15T10:43:55.799Z,331.875
2019-02-15T10:47:26.695Z,331.875
2019-02-15T10:50:54.674Z,337.5
2019-02-15T10:54:23.593Z,354.375
2019-02-15T10:57:51.500Z,466.875
2019-02-15T11:01:19.401Z,686.25
2019-02-15T11:04:47.310Z,680.625
2019-02-15T11:08:15.218Z,427.5
2019-02-15T11:11:43.140Z,528.75
2019-02-15T11:15:12.058Z,562.5
2019-02-15T11:18:40.992Z,517.5
2019-02-15T11:22:08.894Z,1231.875
2019-02-15T11:25:36.804Z,1400.625
2019-02-15T11:29:05.702Z,1513.125
2019-02-15T11:32:33.603Z,1631.25
2019-02-15T11:36:01.543Z,1659.375
2019-02-15T11:39:29.477Z,1800
2019-02-15T11:42:57.386Z,1423.125
2019-02-15T11:46:26.308Z,1687.5
2019-02-15T11:49:54.243Z,1721.25
2019-02-15T11:53:22.181Z,1839.375
2019-02-15T11:56:50.073Z,1951.875
2019-02-15T12:00:23.102Z,2030.625
2019-02-15T12:03:50.905Z,2036.25
2019-02-15T12:07:19.820Z,2008.125
2019-02-15T12:10:47.741Z,1749.375
2019-02-15T12:14:15.674Z,1873.125
2019-02-15T12:17:43.687Z,1895.625
2019-02-15T12:21:11.594Z,1850.625
2019-02-15T12:24:39.531Z,1895.625
2019-02-15T12:28:08.446Z,1996.875
2019-02-15T12:31:36.369Z,2075.625
2019-02-15T12:35:04.304Z,2109.375
2019-02-15T12:38:33.234Z,2103.75
2019-02-15T12:42:01.144Z,2103.75
2019-02-15T12:45:29.075Z,2064.375
2019-02-15T12:48:57.009Z,1861.875
2019-02-15T12:52:24.936Z,2058.75
2019-02-15T12:55:52.881Z,2278.125
2019-02-15T12:59:20.886Z,2137.5
2019-02-15T13:02:48.801Z,2266.875
2019-02-15T13:06:16.751Z,2120.625
2019-02-15T13:09:46.893Z,652.5
2019-02-15T13:13:14.910Z,663.75
2019-02-15T13:16:42.871Z,697.5
2019-02-15T13:20:10.879Z,579.375
2019-02-15T13:23:38.812Z,663.75
2019-02-15T13:27:06.759Z,675
2019-02-15T13:30:34.721Z,669.375
2019-02-15T13:34:03.791Z,618.75
2019-02-15T13:37:31.726Z,663.75
2019-02-15T13:40:59.706Z,686.25
2019-02-15T13:44:27.838Z,663.75
2019-02-15T13:47:56.837Z,646.875
2019-02-15T13:51:24.803Z,680.625
2019-02-15T13:54:52.806Z,675
2019-02-15T13:58:20.769Z,708.75
2019-02-15T14:01:48.726Z,697.5
2019-02-15T14:05:17.711Z,663.75
2019-02-15T14:08:45.635Z,641.25
2019-02-15T14:12:13.623Z,810
2019-02-15T14:15:41.593Z,832.5
2019-02-15T14:19:09.593Z,770.625
2019-02-15T14:22:37.522Z,815.625
2019-02-15T14:26:06.364Z,326.25
2019-02-15T14:29:34.295Z,281.25
2019-02-15T14:33:02.275Z,270
2019-02-15T14:36:30.186Z,253.125
2019-02-15T14:39:58.169Z,241.875
2019-02-15T14:43:26.115Z,236.25
2019-02-15T14:46:54.033Z,230.625
2019-02-15T14:50:21.945Z,225
2019-02-15T14:53:49.869Z,208.125
2019-02-15T14:57:17.785Z,185.625
2019-02-15T15:00:45.687Z,174.375
2019-02-15T15:04:13.627Z,163.125
2019-02-15T15:07:41.540Z,151.875
2019-02-15T15:11:10.457Z,123.75
2019-02-15T15:14:38.425Z,106.875
2019-02-15T15:18:12.899Z,95.625
2019-02-15T15:21:40.373Z,90
2019-02-15T15:25:08.360Z,84.375
2019-02-15T15:28:36.582Z,84.375
2019-02-15T15:32:04.915Z,78.75
2019-02-15T15:35:32.917Z,73.125
2019-02-15T15:39:00.867Z,61.875
2019-02-15T15:42:28.932Z,56.25
2019-02-15T15:45:56.914Z,45
2019-02-15T15:49:24.938Z,45
2019-02-15T15:52:52.907Z,39.375
2019-02-15T15:56:20.980Z,33.75
2019-02-15T15:59:48.974Z,28.125
2019-02-15T16:03:16.926Z,22.5
2019-02-15T16:06:44.832Z,16.875
2019-02-15T16:10:12.777Z,11.25
2019-02-15T16:13:40.724Z,11.25
2019-02-15T16:17:08.621Z,5.625
2019-02-15T16:20:37.593Z,5.625
2019-02-15T16:24:12.476Z,5.625
2019-02-15T16:27:38.972Z,0
2019-02-15T16:31:08.490Z,0
2019-02-15T16:34:37.288Z,0
2019-02-15T16:38:05.374Z,0
2019-02-15T16:41:33.280Z,0
2019-02-15T16:45:01.204Z,0
2019-02-15T16:48:30.209Z,0
2019-02-15T16:51:59.942Z,0
2019-02-15T16:55:27.922Z,0
2019-02-15T16:58:55.845Z,0
2019-02-15T17:02:23.803Z,0
2019-02-15T17:05:51.714Z,0
2019-02-15T17:09:19.630Z,0
2019-02-15T17:12:47.543Z,0
2019-02-15T17:16:15.441Z,0
2019-02-15T17:19:43.372Z,0
2019-02-15T17:23:11.273Z,0
2019-02-15T17:26:39.221Z,0
2019-02-15T17:30:07.127Z,0
2019-02-15T17:33:35.020Z,0
2019-02-15T17:37:02.956Z,0
2019-02-15T17:40:31.868Z,0
2019-02-15T17:43:59.774Z,0
2019-02-15T17:47:27.697Z,0
2019-02-15T17:50:55.623Z,0
2019-02-15T17:54:24.524Z,0
2019-02-15T17:57:52.481Z,0
2019-02-15T18:01:20.386Z,0
2019-02-15T18:04:48.852Z,0
2019-02-15T18:08:16.765Z,0
2019-02-15T18:11:45.689Z,0
2019-02-15T18:15:13.680Z,0
2019-02-15T18:18:41.715Z,0
2019-02-15T18:22:10.533Z,0
2019-02-15T18:25:38.818Z,0
2019-02-15T18:29:06.821Z,0
2019-02-15T18:32:34.797Z,0
2019-02-15T18:36:02.786Z,0
2019-02-15T18:39:30.807Z,0
2019-02-15T18:42:58.898Z,0
2019-02-15T18:46:27.842Z,0
2019-02-15T18:49:55.806Z,0
2019-02-15T18:53:23.802Z,0
2019-02-15T18:56:51.963Z,0
2019-02-15T19:00:19.941Z,0
2019-02-15T19:03:48.799Z,0
2019-02-15T19:07:17.908Z,0
2019-02-15T19:10:47.053Z,0
2019-02-15T19:14:15.215Z,0
2019-02-15T19:17:43.227Z,0
2019-02-15T19:21:11.216Z,0
2019-02-15T19:24:39.200Z,0
2019-02-15T19:32:58.342Z,0
2019-02-15T19:36:26.362Z,0
2019-02-15T19:39:55.405Z,0
2019-02-15T19:43:23.444Z,0
2019-02-15T19:46:51.385Z,0
2019-02-15T19:50:19.353Z,0
2019-02-15T19:53:47.367Z,0
2019-02-15T19:57:15.478Z,0
2019-02-15T20:00:44.440Z,0
2019-02-15T20:04:13.406Z,0
2019-02-15T20:07:41.327Z,0
2019-02-15T20:11:09.300Z,0
2019-02-15T20:14:37.302Z,0
2019-02-15T20:18:05.311Z,0
2019-02-15T20:21:33.267Z,0
2019-02-15T20:25:03.337Z,0
2019-02-15T20:28:31.285Z,0
2019-02-15T20:31:59.449Z,0
2019-02-15T20:35:27.333Z,0
2019-02-15T20:38:55.346Z,0
2019-02-15T20:42:23.279Z,0
2019-02-15T20:45:51.233Z,0
2019-02-15T20:49:20.406Z,0
2019-02-15T20:52:48.347Z,0
2019-02-15T20:56:16.498Z,0
2019-02-15T20:59:44.524Z,0
2019-02-15T21:03:13.466Z,0
2019-02-15T21:06:41.432Z,0
2019-02-15T21:10:09.355Z,0
2019-02-15T21:13:37.315Z,0
2019-02-15T21:17:05.292Z,0
2019-02-15T21:20:33.964Z,0
2019-02-15T21:24:01.996Z,0
2019-02-15T21:27:29.966Z,0
2019-02-15T21:30:57.936Z,0
2019-02-15T21:34:25.860Z,0
2019-02-15T21:37:54.555Z,0
2019-02-15T21:41:23.617Z,0
2019-02-15T21:44:51.778Z,0
2019-02-15T21:48:20.613Z,0
2019-02-15T21:51:49.766Z,0
2019-02-15T21:55:17.820Z,0
2019-02-15T21:58:45.853Z,0
2019-02-15T22:02:13.769Z,0
2019-02-15T22:05:41.677Z,0
2019-02-15T22:09:09.642Z,0
2019-02-15T22:12:37.642Z,0
2019-02-15T22:16:05.511Z,0
2019-02-15T22:19:34.416Z,0
2019-02-15T22:23:02.336Z,0
2019-02-15T22:26:30.225Z,0
2019-02-15T22:29:59.144Z,0
2019-02-15T22:33:27.075Z,0
2019-02-15T22:36:54.965Z,0
2019-02-15T22:40:23.887Z,0
2019-02-15T22:43:51.819Z,0
2019-02-15T22:47:19.743Z,0
2019-02-15T22:50:47.639Z,0
2019-02-15T22:54:15.565Z,0
2019-02-15T22:57:43.450Z,0
